sensor_id;sensor_type;location;lat;lon;timestamp;P1;durP1;ratioP1;P2;durP2;ratioP2
38435;SDS011;24220;48.168;14.024;2023-01-29T00:00:03;20.20;;;15.75;;
38435;SDS011;24220;48.168;14.024;2023-01-29T00:02:36;23.00;;;17.25;;
38435;SDS011;24220;48.168;14.024;2023-01-29T00:05:03;20.10;;;15.45;;
38435;SDS011;24220;48.168;14.024;2023-01-29T00:07:54;25.30;;;18.27;;
38435;SDS011;24220;48.168;14.024;2023-01-29T00:10:25;21.83;;;16.05;;
38435;SDS011;24220;48.168;14.024;2023-01-29T00:12:52;23.80;;;15.63;;
38435;SDS011;24220;48.168;14.024;2023-01-29T00:15:20;21.45;;;16.52;;
38435;SDS011;24220;48.168;14.024;2023-01-29T00:17:47;21.20;;;15.65;;
38435;SDS011;24220;48.168;14.024;2023-01-29T00:20:15;24.58;;;15.77;;
38435;SDS011;24220;48.168;14.024;2023-01-29T00:22:45;22.55;;;16.38;;
38435;SDS011;24220;48.168;14.024;2023-01-29T00:25:12;22.60;;;15.95;;
38435;SDS011;24220;48.168;14.024;2023-01-29T00:27:42;20.17;;;15.65;;
38435;SDS011;24220;48.168;14.024;2023-01-29T00:30:12;23.48;;;16.48;;
38435;SDS011;24220;48.168;14.024;2023-01-29T00:32:40;23.20;;;15.85;;
38435;SDS011;24220;48.168;14.024;2023-01-29T00:35:12;24.08;;;16.15;;
38435;SDS011;24220;48.168;14.024;2023-01-29T00:37:42;27.33;;;18.58;;
38435;SDS011;24220;48.168;14.024;2023-01-29T00:40:10;26.92;;;18.48;;
38435;SDS011;24220;48.168;14.024;2023-01-29T00:42:39;27.42;;;18.20;;
38435;SDS011;24220;48.168;14.024;2023-01-29T00:45:28;28.65;;;19.38;;
38435;SDS011;24220;48.168;14.024;2023-01-29T00:47:55;26.98;;;18.77;;
38435;SDS011;24220;48.168;14.024;2023-01-29T00:50:22;25.42;;;17.60;;
38435;SDS011;24220;48.168;14.024;2023-01-29T00:52:50;28.58;;;18.23;;
38435;SDS011;24220;48.168;14.024;2023-01-29T00:55:18;27.40;;;18.88;;
38435;SDS011;24220;48.168;14.024;2023-01-29T00:57:48;23.88;;;16.40;;
38435;SDS011;24220;48.168;14.024;2023-01-29T01:00:18;28.58;;;19.40;;
38435;SDS011;24220;48.168;14.024;2023-01-29T01:02:46;24.08;;;17.13;;
38435;SDS011;24220;48.168;14.024;2023-01-29T01:05:34;27.77;;;19.10;;
38435;SDS011;24220;48.168;14.024;2023-01-29T01:08:04;27.27;;;19.23;;
38435;SDS011;24220;48.168;14.024;2023-01-29T01:11:02;25.50;;;18.45;;
38435;SDS011;24220;48.168;14.024;2023-01-29T01:13:33;28.67;;;18.45;;
38435;SDS011;24220;48.168;14.024;2023-01-29T01:16:00;27.65;;;18.85;;
38435;SDS011;24220;48.168;14.024;2023-01-29T01:18:28;29.00;;;20.55;;
38435;SDS011;24220;48.168;14.024;2023-01-29T01:20:56;25.75;;;17.80;;
38435;SDS011;24220;48.168;14.024;2023-01-29T01:23:25;30.90;;;19.70;;
38435;SDS011;24220;48.168;14.024;2023-01-29T01:25:53;25.77;;;17.98;;
38435;SDS011;24220;48.168;14.024;2023-01-29T01:28:21;24.88;;;18.98;;
38435;SDS011;24220;48.168;14.024;2023-01-29T01:30:50;28.45;;;19.13;;
38435;SDS011;24220;48.168;14.024;2023-01-29T01:33:18;25.65;;;18.33;;
38435;SDS011;24220;48.168;14.024;2023-01-29T01:35:45;31.20;;;19.52;;
38435;SDS011;24220;48.168;14.024;2023-01-29T01:38:13;27.60;;;19.08;;
38435;SDS011;24220;48.168;14.024;2023-01-29T01:40:42;28.45;;;19.65;;
38435;SDS011;24220;48.168;14.024;2023-01-29T01:43:11;26.75;;;18.30;;
38435;SDS011;24220;48.168;14.024;2023-01-29T01:45:39;29.30;;;19.55;;
38435;SDS011;24220;48.168;14.024;2023-01-29T01:48:10;29.73;;;19.35;;
38435;SDS011;24220;48.168;14.024;2023-01-29T01:50:53;31.10;;;20.83;;
38435;SDS011;24220;48.168;14.024;2023-01-29T01:53:25;26.67;;;18.60;;
38435;SDS011;24220;48.168;14.024;2023-01-29T01:56:01;28.88;;;19.63;;
38435;SDS011;24220;48.168;14.024;2023-01-29T01:58:33;26.92;;;18.38;;
38435;SDS011;24220;48.168;14.024;2023-01-29T02:01:06;24.40;;;17.55;;
38435;SDS011;24220;48.168;14.024;2023-01-29T02:03:36;26.48;;;18.77;;
38435;SDS011;24220;48.168;14.024;2023-01-29T02:06:38;25.02;;;17.35;;
38435;SDS011;24220;48.168;14.024;2023-01-29T02:09:26;25.35;;;17.52;;
38435;SDS011;24220;48.168;14.024;2023-01-29T02:12:05;27.60;;;18.77;;
38435;SDS011;24220;48.168;14.024;2023-01-29T02:14:38;25.52;;;17.70;;
38435;SDS011;24220;48.168;14.024;2023-01-29T02:17:07;26.67;;;18.10;;
38435;SDS011;24220;48.168;14.024;2023-01-29T02:28:22;27.02;;;19.75;;
38435;SDS011;24220;48.168;14.024;2023-01-29T02:36:45;28.83;;;19.50;;
38435;SDS011;24220;48.168;14.024;2023-01-29T02:45:11;26.75;;;19.17;;
38435;SDS011;24220;48.168;14.024;2023-01-29T02:47:35;28.10;;;19.92;;
38435;SDS011;24220;48.168;14.024;2023-01-29T02:50:16;26.98;;;19.10;;
38435;SDS011;24220;48.168;14.024;2023-01-29T02:53:03;27.95;;;19.25;;
38435;SDS011;24220;48.168;14.024;2023-01-29T02:58:12;29.88;;;20.00;;
38435;SDS011;24220;48.168;14.024;2023-01-29T03:00:50;28.17;;;20.25;;
38435;SDS011;24220;48.168;14.024;2023-01-29T03:03:26;29.40;;;20.65;;
38435;SDS011;24220;48.168;14.024;2023-01-29T03:06:35;30.20;;;20.38;;
38435;SDS011;24220;48.168;14.024;2023-01-29T03:09:09;29.80;;;20.02;;
38435;SDS011;24220;48.168;14.024;2023-01-29T03:11:41;29.75;;;19.35;;
38435;SDS011;24220;48.168;14.024;2023-01-29T03:14:17;30.42;;;19.95;;
38435;SDS011;24220;48.168;14.024;2023-01-29T03:16:54;29.83;;;19.48;;
38435;SDS011;24220;48.168;14.024;2023-01-29T03:19:25;31.10;;;20.33;;
38435;SDS011;24220;48.168;14.024;2023-01-29T03:22:02;29.30;;;20.52;;
38435;SDS011;24220;48.168;14.024;2023-01-29T03:24:38;30.00;;;20.83;;
38435;SDS011;24220;48.168;14.024;2023-01-29T03:27:35;28.55;;;20.45;;
38435;SDS011;24220;48.168;14.024;2023-01-29T03:30:25;27.70;;;20.10;;
38435;SDS011;24220;48.168;14.024;2023-01-29T03:33:17;27.17;;;19.70;;
38435;SDS011;24220;48.168;14.024;2023-01-29T03:35:57;28.20;;;19.13;;
38435;SDS011;24220;48.168;14.024;2023-01-29T03:38:28;30.40;;;20.55;;
38435;SDS011;24220;48.168;14.024;2023-01-29T03:41:01;28.42;;;20.60;;
38435;SDS011;24220;48.168;14.024;2023-01-29T03:46:29;26.38;;;17.80;;
38435;SDS011;24220;48.168;14.024;2023-01-29T03:49:10;25.00;;;18.13;;
38435;SDS011;24220;48.168;14.024;2023-01-29T03:57:39;25.90;;;16.98;;
38435;SDS011;24220;48.168;14.024;2023-01-29T04:00:21;26.13;;;17.73;;
38435;SDS011;24220;48.168;14.024;2023-01-29T04:02:57;25.02;;;16.10;;
38435;SDS011;24220;48.168;14.024;2023-01-29T04:05:30;24.23;;;17.10;;
38435;SDS011;24220;48.168;14.024;2023-01-29T04:08:08;23.30;;;17.35;;
38435;SDS011;24220;48.168;14.024;2023-01-29T04:10:40;23.67;;;16.58;;
38435;SDS011;24220;48.168;14.024;2023-01-29T04:13:11;22.20;;;16.08;;
38435;SDS011;24220;48.168;14.024;2023-01-29T04:15:42;19.90;;;15.48;;
38435;SDS011;24220;48.168;14.024;2023-01-29T04:18:20;17.50;;;13.88;;
38435;SDS011;24220;48.168;14.024;2023-01-29T04:20:50;21.55;;;14.30;;
38435;SDS011;24220;48.168;14.024;2023-01-29T04:23:21;17.55;;;13.73;;
38435;SDS011;24220;48.168;14.024;2023-01-29T04:31:46;16.58;;;13.15;;
38435;SDS011;24220;48.168;14.024;2023-01-29T04:52:07;16.90;;;13.32;;
38435;SDS011;24220;48.168;14.024;2023-01-29T04:54:57;17.00;;;12.48;;
38435;SDS011;24220;48.168;14.024;2023-01-29T04:57:30;13.90;;;11.85;;
38435;SDS011;24220;48.168;14.024;2023-01-29T05:00:16;15.57;;;12.00;;
38435;SDS011;24220;48.168;14.024;2023-01-29T05:02:47;14.50;;;11.98;;
38435;SDS011;24220;48.168;14.024;2023-01-29T05:05:15;14.63;;;11.95;;
38435;SDS011;24220;48.168;14.024;2023-01-29T05:07:45;13.38;;;10.57;;
38435;SDS011;24220;48.168;14.024;2023-01-29T05:10:14;13.57;;;11.60;;
38435;SDS011;24220;48.168;14.024;2023-01-29T05:12:49;14.52;;;10.57;;
38435;SDS011;24220;48.168;14.024;2023-01-29T05:15:25;14.18;;;11.48;;
38435;SDS011;24220;48.168;14.024;2023-01-29T05:18:31;14.43;;;12.45;;
38435;SDS011;24220;48.168;14.024;2023-01-29T05:21:03;16.63;;;12.68;;
38435;SDS011;24220;48.168;14.024;2023-01-29T05:23:33;14.95;;;12.23;;
38435;SDS011;24220;48.168;14.024;2023-01-29T05:26:00;15.63;;;12.20;;
38435;SDS011;24220;48.168;14.024;2023-01-29T05:28:30;16.50;;;12.73;;
38435;SDS011;24220;48.168;14.024;2023-01-29T05:30:57;14.93;;;11.93;;
38435;SDS011;24220;48.168;14.024;2023-01-29T05:35:54;15.60;;;11.85;;
38435;SDS011;24220;48.168;14.024;2023-01-29T05:38:26;14.77;;;12.07;;
38435;SDS011;24220;48.168;14.024;2023-01-29T05:40:56;14.73;;;11.98;;
38435;SDS011;24220;48.168;14.024;2023-01-29T05:43:27;17.77;;;12.70;;
38435;SDS011;24220;48.168;14.024;2023-01-29T05:45:57;16.85;;;13.05;;
38435;SDS011;24220;48.168;14.024;2023-01-29T05:48:26;16.15;;;12.85;;
38435;SDS011;24220;48.168;14.024;2023-01-29T05:51:00;14.50;;;12.43;;
38435;SDS011;24220;48.168;14.024;2023-01-29T05:53:30;15.40;;;12.48;;
38435;SDS011;24220;48.168;14.024;2023-01-29T05:56:01;16.58;;;12.93;;
38435;SDS011;24220;48.168;14.024;2023-01-29T05:58:30;16.48;;;12.82;;
38435;SDS011;24220;48.168;14.024;2023-01-29T06:01:06;14.07;;;12.05;;
38435;SDS011;24220;48.168;14.024;2023-01-29T06:03:41;14.68;;;12.07;;
38435;SDS011;24220;48.168;14.024;2023-01-29T06:06:09;14.38;;;11.90;;
38435;SDS011;24220;48.168;14.024;2023-01-29T06:08:37;16.42;;;13.45;;
38435;SDS011;24220;48.168;14.024;2023-01-29T06:11:08;15.77;;;12.63;;
38435;SDS011;24220;48.168;14.024;2023-01-29T06:13:39;13.45;;;11.98;;
38435;SDS011;24220;48.168;14.024;2023-01-29T06:16:07;15.60;;;12.45;;
38435;SDS011;24220;48.168;14.024;2023-01-29T06:18:35;17.17;;;13.52;;
38435;SDS011;24220;48.168;14.024;2023-01-29T06:21:04;15.45;;;12.63;;
38435;SDS011;24220;48.168;14.024;2023-01-29T06:23:36;15.63;;;12.48;;
38435;SDS011;24220;48.168;14.024;2023-01-29T06:26:07;19.23;;;13.95;;
38435;SDS011;24220;48.168;14.024;2023-01-29T06:28:37;15.85;;;12.88;;
38435;SDS011;24220;48.168;14.024;2023-01-29T06:31:05;16.70;;;12.93;;
38435;SDS011;24220;48.168;14.024;2023-01-29T06:33:53;16.25;;;13.05;;
38435;SDS011;24220;48.168;14.024;2023-01-29T06:36:21;16.48;;;13.65;;
38435;SDS011;24220;48.168;14.024;2023-01-29T06:38:48;15.20;;;12.10;;
38435;SDS011;24220;48.168;14.024;2023-01-29T06:41:16;14.40;;;12.50;;
38435;SDS011;24220;48.168;14.024;2023-01-29T06:43:45;17.02;;;13.02;;
38435;SDS011;24220;48.168;14.024;2023-01-29T06:46:16;15.50;;;12.48;;
38435;SDS011;24220;48.168;14.024;2023-01-29T06:48:48;17.52;;;14.68;;
38435;SDS011;24220;48.168;14.024;2023-01-29T06:51:15;16.27;;;14.23;;
38435;SDS011;24220;48.168;14.024;2023-01-29T06:53:43;14.80;;;12.97;;
38435;SDS011;24220;48.168;14.024;2023-01-29T06:56:12;15.67;;;12.70;;
38435;SDS011;24220;48.168;14.024;2023-01-29T06:58:41;15.02;;;13.20;;
38435;SDS011;24220;48.168;14.024;2023-01-29T07:01:12;14.23;;;12.23;;
38435;SDS011;24220;48.168;14.024;2023-01-29T07:03:58;15.02;;;12.45;;
38435;SDS011;24220;48.168;14.024;2023-01-29T07:06:27;14.23;;;11.93;;
38435;SDS011;24220;48.168;14.024;2023-01-29T07:08:56;14.38;;;12.23;;
38435;SDS011;24220;48.168;14.024;2023-01-29T07:11:24;14.68;;;12.50;;
38435;SDS011;24220;48.168;14.024;2023-01-29T07:13:56;13.05;;;11.65;;
38435;SDS011;24220;48.168;14.024;2023-01-29T07:16:23;15.63;;;12.45;;
38435;SDS011;24220;48.168;14.024;2023-01-29T07:18:52;15.35;;;12.57;;
38435;SDS011;24220;48.168;14.024;2023-01-29T07:21:26;12.95;;;11.30;;
38435;SDS011;24220;48.168;14.024;2023-01-29T07:23:53;16.63;;;12.50;;
38435;SDS011;24220;48.168;14.024;2023-01-29T07:26:21;14.38;;;11.93;;
38435;SDS011;24220;48.168;14.024;2023-01-29T07:28:48;14.27;;;11.95;;
38435;SDS011;24220;48.168;14.024;2023-01-29T07:31:15;12.75;;;10.82;;
38435;SDS011;24220;48.168;14.024;2023-01-29T07:33:43;13.88;;;11.43;;
38435;SDS011;24220;48.168;14.024;2023-01-29T07:36:11;12.43;;;10.80;;
38435;SDS011;24220;48.168;14.024;2023-01-29T07:38:42;12.87;;;11.03;;
38435;SDS011;24220;48.168;14.024;2023-01-29T07:41:10;14.20;;;11.63;;
38435;SDS011;24220;48.168;14.024;2023-01-29T07:43:40;14.73;;;10.93;;
38435;SDS011;24220;48.168;14.024;2023-01-29T07:46:07;12.35;;;10.32;;
38435;SDS011;24220;48.168;14.024;2023-01-29T07:48:35;13.70;;;11.52;;
38435;SDS011;24220;48.168;14.024;2023-01-29T07:51:05;13.10;;;11.00;;
38435;SDS011;24220;48.168;14.024;2023-01-29T07:53:33;12.55;;;10.85;;
38435;SDS011;24220;48.168;14.024;2023-01-29T07:56:01;13.80;;;11.75;;
38435;SDS011;24220;48.168;14.024;2023-01-29T07:58:29;14.13;;;12.30;;
38435;SDS011;24220;48.168;14.024;2023-01-29T08:00:56;14.32;;;11.63;;
38435;SDS011;24220;48.168;14.024;2023-01-29T08:03:24;14.25;;;11.35;;
38435;SDS011;24220;48.168;14.024;2023-01-29T08:05:51;15.15;;;12.30;;
38435;SDS011;24220;48.168;14.024;2023-01-29T08:08:18;15.20;;;12.20;;
38435;SDS011;24220;48.168;14.024;2023-01-29T08:10:46;16.58;;;12.13;;
38435;SDS011;24220;48.168;14.024;2023-01-29T08:13:13;15.60;;;12.85;;
38435;SDS011;24220;48.168;14.024;2023-01-29T08:15:41;14.60;;;12.30;;
38435;SDS011;24220;48.168;14.024;2023-01-29T08:18:11;14.63;;;12.38;;
38435;SDS011;24220;48.168;14.024;2023-01-29T08:20:39;14.85;;;11.25;;
38435;SDS011;24220;48.168;14.024;2023-01-29T08:23:08;12.95;;;11.32;;
38435;SDS011;24220;48.168;14.024;2023-01-29T08:25:39;12.73;;;10.77;;
38435;SDS011;24220;48.168;14.024;2023-01-29T08:28:09;13.23;;;10.95;;
38435;SDS011;24220;48.168;14.024;2023-01-29T08:30:38;11.88;;;10.00;;
38435;SDS011;24220;48.168;14.024;2023-01-29T08:33:05;14.02;;;10.75;;
38435;SDS011;24220;48.168;14.024;2023-01-29T08:35:35;11.65;;;10.15;;
38435;SDS011;24220;48.168;14.024;2023-01-29T08:38:03;10.82;;;9.43;;
38435;SDS011;24220;48.168;14.024;2023-01-29T08:40:32;10.63;;;9.43;;
38435;SDS011;24220;48.168;14.024;2023-01-29T08:43:03;11.75;;;10.15;;
38435;SDS011;24220;48.168;14.024;2023-01-29T08:45:35;11.27;;;9.27;;
38435;SDS011;24220;48.168;14.024;2023-01-29T08:48:07;10.68;;;8.95;;
38435;SDS011;24220;48.168;14.024;2023-01-29T08:50:35;9.48;;;7.97;;
38435;SDS011;24220;48.168;14.024;2023-01-29T08:53:04;9.18;;;8.02;;
38435;SDS011;24220;48.168;14.024;2023-01-29T08:55:36;9.02;;;8.07;;
38435;SDS011;24220;48.168;14.024;2023-01-29T08:58:05;9.57;;;8.57;;
38435;SDS011;24220;48.168;14.024;2023-01-29T09:00:34;10.18;;;8.45;;
38435;SDS011;24220;48.168;14.024;2023-01-29T09:03:02;11.10;;;7.67;;
38435;SDS011;24220;48.168;14.024;2023-01-29T09:05:31;9.00;;;7.97;;
38435;SDS011;24220;48.168;14.024;2023-01-29T09:08:00;9.40;;;7.70;;
38435;SDS011;24220;48.168;14.024;2023-01-29T09:10:27;9.70;;;7.80;;
38435;SDS011;24220;48.168;14.024;2023-01-29T09:12:55;8.80;;;7.43;;
38435;SDS011;24220;48.168;14.024;2023-01-29T09:15:22;7.95;;;6.80;;
38435;SDS011;24220;48.168;14.024;2023-01-29T09:17:50;7.45;;;6.72;;
38435;SDS011;24220;48.168;14.024;2023-01-29T09:20:18;8.07;;;6.57;;
38435;SDS011;24220;48.168;14.024;2023-01-29T09:22:46;8.63;;;6.40;;
38435;SDS011;24220;48.168;14.024;2023-01-29T09:25:15;7.53;;;6.73;;
38435;SDS011;24220;48.168;14.024;2023-01-29T09:27:42;7.55;;;6.60;;
38435;SDS011;24220;48.168;14.024;2023-01-29T09:30:12;7.43;;;6.38;;
38435;SDS011;24220;48.168;14.024;2023-01-29T09:32:40;7.47;;;6.73;;
38435;SDS011;24220;48.168;14.024;2023-01-29T09:35:22;7.50;;;6.60;;
38435;SDS011;24220;48.168;14.024;2023-01-29T09:37:52;7.47;;;6.38;;
38435;SDS011;24220;48.168;14.024;2023-01-29T09:40:22;7.70;;;6.57;;
38435;SDS011;24220;48.168;14.024;2023-01-29T09:43:01;7.70;;;6.88;;
38435;SDS011;24220;48.168;14.024;2023-01-29T09:45:33;7.15;;;6.45;;
38435;SDS011;24220;48.168;14.024;2023-01-29T09:48:07;6.40;;;5.80;;
38435;SDS011;24220;48.168;14.024;2023-01-29T09:50:40;8.57;;;6.50;;
38435;SDS011;24220;48.168;14.024;2023-01-29T09:56:01;8.73;;;6.82;;
38435;SDS011;24220;48.168;14.024;2023-01-29T09:58:35;9.35;;;6.70;;
38435;SDS011;24220;48.168;14.024;2023-01-29T10:01:12;9.50;;;7.38;;
38435;SDS011;24220;48.168;14.024;2023-01-29T10:06:45;7.68;;;6.63;;
38435;SDS011;24220;48.168;14.024;2023-01-29T10:09:39;8.85;;;7.13;;
38435;SDS011;24220;48.168;14.024;2023-01-29T10:23:50;7.47;;;5.85;;
38435;SDS011;24220;48.168;14.024;2023-01-29T10:26:26;7.90;;;6.60;;
38435;SDS011;24220;48.168;14.024;2023-01-29T10:28:55;10.20;;;6.28;;
38435;SDS011;24220;48.168;14.024;2023-01-29T10:31:31;9.27;;;5.95;;
38435;SDS011;24220;48.168;14.024;2023-01-29T10:37:07;14.95;;;10.95;;
38435;SDS011;24220;48.168;14.024;2023-01-29T10:39:49;19.02;;;16.05;;
38435;SDS011;24220;48.168;14.024;2023-01-29T10:44:57;14.88;;;12.70;;
38435;SDS011;24220;48.168;14.024;2023-01-29T10:50:02;7.93;;;7.13;;
38435;SDS011;24220;48.168;14.024;2023-01-29T10:55:30;7.90;;;7.10;;
38435;SDS011;24220;48.168;14.024;2023-01-29T10:58:49;8.27;;;7.47;;
38435;SDS011;24220;48.168;14.024;2023-01-29T11:01:20;7.15;;;6.30;;
38435;SDS011;24220;48.168;14.024;2023-01-29T11:04:03;7.40;;;6.40;;
38435;SDS011;24220;48.168;14.024;2023-01-29T11:06:32;7.45;;;6.75;;
38435;SDS011;24220;48.168;14.024;2023-01-29T11:09:07;8.88;;;6.45;;
38435;SDS011;24220;48.168;14.024;2023-01-29T11:11:53;7.22;;;6.50;;
38435;SDS011;24220;48.168;14.024;2023-01-29T11:14:26;7.55;;;6.50;;
38435;SDS011;24220;48.168;14.024;2023-01-29T11:17:03;8.85;;;6.57;;
38435;SDS011;24220;48.168;14.024;2023-01-29T11:19:37;6.95;;;6.18;;
38435;SDS011;24220;48.168;14.024;2023-01-29T11:24:40;7.65;;;6.78;;
38435;SDS011;24220;48.168;14.024;2023-01-29T11:27:22;7.78;;;6.72;;
38435;SDS011;24220;48.168;14.024;2023-01-29T11:29:56;7.57;;;6.78;;
38435;SDS011;24220;48.168;14.024;2023-01-29T11:32:24;8.32;;;6.90;;
38435;SDS011;24220;48.168;14.024;2023-01-29T11:37:42;7.28;;;6.13;;
38435;SDS011;24220;48.168;14.024;2023-01-29T11:42:45;6.68;;;5.97;;
38435;SDS011;24220;48.168;14.024;2023-01-29T11:45:33;7.32;;;6.50;;
38435;SDS011;24220;48.168;14.024;2023-01-29T11:48:04;9.50;;;7.15;;
38435;SDS011;24220;48.168;14.024;2023-01-29T11:50:39;9.80;;;7.65;;
38435;SDS011;24220;48.168;14.024;2023-01-29T11:53:16;7.10;;;5.78;;
38435;SDS011;24220;48.168;14.024;2023-01-29T11:55:50;8.07;;;6.97;;
38435;SDS011;24220;48.168;14.024;2023-01-29T11:58:20;7.13;;;6.35;;
38435;SDS011;24220;48.168;14.024;2023-01-29T12:00:59;9.38;;;7.57;;
38435;SDS011;24220;48.168;14.024;2023-01-29T12:06:15;7.43;;;6.55;;
38435;SDS011;24220;48.168;14.024;2023-01-29T12:08:43;9.13;;;6.70;;
38435;SDS011;24220;48.168;14.024;2023-01-29T12:11:14;8.43;;;6.97;;
38435;SDS011;24220;48.168;14.024;2023-01-29T12:13:55;13.93;;;10.80;;
38435;SDS011;24220;48.168;14.024;2023-01-29T12:16:29;14.63;;;11.55;;
38435;SDS011;24220;48.168;14.024;2023-01-29T12:22:04;10.30;;;6.75;;
38435;SDS011;24220;48.168;14.024;2023-01-29T12:27:26;8.27;;;7.32;;
38435;SDS011;24220;48.168;14.024;2023-01-29T12:32:58;7.90;;;7.00;;
38435;SDS011;24220;48.168;14.024;2023-01-29T12:35:44;28.48;;;13.75;;
38435;SDS011;24220;48.168;14.024;2023-01-29T12:38:19;14.88;;;8.60;;
38435;SDS011;24220;48.168;14.024;2023-01-29T12:40:53;12.40;;;8.52;;
38435;SDS011;24220;48.168;14.024;2023-01-29T12:43:29;12.57;;;8.77;;
38435;SDS011;24220;48.168;14.024;2023-01-29T12:46:28;16.60;;;11.70;;
38435;SDS011;24220;48.168;14.024;2023-01-29T12:49:00;9.60;;;8.32;;
38435;SDS011;24220;48.168;14.024;2023-01-29T12:51:32;9.23;;;8.25;;
38435;SDS011;24220;48.168;14.024;2023-01-29T12:54:06;8.88;;;7.95;;
38435;SDS011;24220;48.168;14.024;2023-01-29T12:56:41;9.00;;;7.75;;
38435;SDS011;24220;48.168;14.024;2023-01-29T12:59:16;9.80;;;7.93;;
38435;SDS011;24220;48.168;14.024;2023-01-29T13:02:01;8.65;;;7.35;;
38435;SDS011;24220;48.168;14.024;2023-01-29T13:04:54;8.63;;;7.72;;
38435;SDS011;24220;48.168;14.024;2023-01-29T13:07:32;10.35;;;7.70;;
38435;SDS011;24220;48.168;14.024;2023-01-29T13:10:09;8.93;;;7.60;;
38435;SDS011;24220;48.168;14.024;2023-01-29T13:12:45;8.73;;;7.63;;
38435;SDS011;24220;48.168;14.024;2023-01-29T13:15:39;9.35;;;7.70;;
38435;SDS011;24220;48.168;14.024;2023-01-29T13:21:05;9.18;;;7.45;;
38435;SDS011;24220;48.168;14.024;2023-01-29T13:23:53;9.77;;;8.00;;
38435;SDS011;24220;48.168;14.024;2023-01-29T13:26:31;10.48;;;8.52;;
38435;SDS011;24220;48.168;14.024;2023-01-29T13:29:12;9.90;;;7.80;;
38435;SDS011;24220;48.168;14.024;2023-01-29T13:31:53;10.80;;;8.15;;
38435;SDS011;24220;48.168;14.024;2023-01-29T13:34:23;10.52;;;8.10;;
38435;SDS011;24220;48.168;14.024;2023-01-29T13:36:55;10.05;;;8.05;;
38435;SDS011;24220;48.168;14.024;2023-01-29T13:41:55;8.73;;;7.45;;
38435;SDS011;24220;48.168;14.024;2023-01-29T13:44:30;9.68;;;7.78;;
38435;SDS011;24220;48.168;14.024;2023-01-29T13:47:02;10.45;;;8.18;;
38435;SDS011;24220;48.168;14.024;2023-01-29T13:52:20;9.82;;;7.95;;
38435;SDS011;24220;48.168;14.024;2023-01-29T13:54:59;9.85;;;7.90;;
38435;SDS011;24220;48.168;14.024;2023-01-29T13:57:45;9.30;;;8.30;;
38435;SDS011;24220;48.168;14.024;2023-01-29T14:02:47;11.63;;;8.65;;
38435;SDS011;24220;48.168;14.024;2023-01-29T14:08:00;9.75;;;8.02;;
38435;SDS011;24220;48.168;14.024;2023-01-29T14:10:30;8.93;;;7.55;;
38435;SDS011;24220;48.168;14.024;2023-01-29T14:15:32;11.80;;;8.63;;
38435;SDS011;24220;48.168;14.024;2023-01-29T14:18:11;11.68;;;8.68;;
38435;SDS011;24220;48.168;14.024;2023-01-29T14:23:56;9.60;;;8.48;;
38435;SDS011;24220;48.168;14.024;2023-01-29T14:34:16;11.30;;;9.02;;
38435;SDS011;24220;48.168;14.024;2023-01-29T14:36:46;17.52;;;13.15;;
38435;SDS011;24220;48.168;14.024;2023-01-29T14:41:53;12.30;;;9.13;;
38435;SDS011;24220;48.168;14.024;2023-01-29T14:52:48;10.68;;;8.35;;
38435;SDS011;24220;48.168;14.024;2023-01-29T14:55:25;12.43;;;9.00;;
38435;SDS011;24220;48.168;14.024;2023-01-29T14:58:03;10.48;;;8.85;;
38435;SDS011;24220;48.168;14.024;2023-01-29T15:00:33;11.95;;;8.90;;
38435;SDS011;24220;48.168;14.024;2023-01-29T15:03:11;9.63;;;8.45;;
38435;SDS011;24220;48.168;14.024;2023-01-29T15:05:44;10.90;;;8.57;;
38435;SDS011;24220;48.168;14.024;2023-01-29T15:08:15;12.82;;;9.93;;
38435;SDS011;24220;48.168;14.024;2023-01-29T15:10:59;12.48;;;9.90;;
38435;SDS011;24220;48.168;14.024;2023-01-29T15:14:05;11.70;;;9.63;;
38435;SDS011;24220;48.168;14.024;2023-01-29T15:19:25;10.45;;;9.35;;
38435;SDS011;24220;48.168;14.024;2023-01-29T15:22:10;11.48;;;9.13;;
38435;SDS011;24220;48.168;14.024;2023-01-29T15:24:46;12.38;;;9.60;;
38435;SDS011;24220;48.168;14.024;2023-01-29T15:27:27;11.70;;;9.65;;
38435;SDS011;24220;48.168;14.024;2023-01-29T15:29:59;11.50;;;9.30;;
38435;SDS011;24220;48.168;14.024;2023-01-29T15:32:35;13.13;;;9.27;;
38435;SDS011;24220;48.168;14.024;2023-01-29T15:35:06;11.80;;;9.75;;
38435;SDS011;24220;48.168;14.024;2023-01-29T15:37:56;10.52;;;8.60;;
38435;SDS011;24220;48.168;14.024;2023-01-29T15:40:30;13.50;;;10.27;;
38435;SDS011;24220;48.168;14.024;2023-01-29T15:42:58;11.10;;;9.30;;
38435;SDS011;24220;48.168;14.024;2023-01-29T15:45:31;11.63;;;9.65;;
38435;SDS011;24220;48.168;14.024;2023-01-29T15:48:03;11.05;;;9.10;;
38435;SDS011;24220;48.168;14.024;2023-01-29T15:50:34;12.18;;;9.60;;
38435;SDS011;24220;48.168;14.024;2023-01-29T15:53:05;10.52;;;9.30;;
38435;SDS011;24220;48.168;14.024;2023-01-29T15:55:35;13.75;;;9.93;;
38435;SDS011;24220;48.168;14.024;2023-01-29T15:58:03;12.50;;;9.15;;
38435;SDS011;24220;48.168;14.024;2023-01-29T16:00:30;16.60;;;10.07;;
38435;SDS011;24220;48.168;14.024;2023-01-29T16:02:58;12.55;;;10.00;;
38435;SDS011;24220;48.168;14.024;2023-01-29T16:05:29;11.65;;;10.45;;
38435;SDS011;24220;48.168;14.024;2023-01-29T16:07:59;12.20;;;10.23;;
38435;SDS011;24220;48.168;14.024;2023-01-29T16:10:30;12.82;;;9.73;;
38435;SDS011;24220;48.168;14.024;2023-01-29T16:12:59;11.35;;;9.85;;
38435;SDS011;24220;48.168;14.024;2023-01-29T16:15:36;10.93;;;9.23;;
38435;SDS011;24220;48.168;14.024;2023-01-29T16:18:28;10.90;;;9.70;;
38435;SDS011;24220;48.168;14.024;2023-01-29T16:21:05;13.52;;;10.35;;
38435;SDS011;24220;48.168;14.024;2023-01-29T16:23:41;15.85;;;14.25;;
38435;SDS011;24220;48.168;14.024;2023-01-29T16:26:20;14.73;;;12.15;;
38435;SDS011;24220;48.168;14.024;2023-01-29T16:28:53;14.32;;;11.95;;
38435;SDS011;24220;48.168;14.024;2023-01-29T16:31:31;12.57;;;10.27;;
38435;SDS011;24220;48.168;14.024;2023-01-29T16:34:04;15.02;;;10.25;;
38435;SDS011;24220;48.168;14.024;2023-01-29T16:36:36;13.70;;;11.02;;
38435;SDS011;24220;48.168;14.024;2023-01-29T16:39:13;11.25;;;10.02;;
38435;SDS011;24220;48.168;14.024;2023-01-29T16:44:38;12.13;;;10.07;;
38435;SDS011;24220;48.168;14.024;2023-01-29T16:47:11;12.73;;;10.73;;
38435;SDS011;24220;48.168;14.024;2023-01-29T16:49:52;13.38;;;10.43;;
38435;SDS011;24220;48.168;14.024;2023-01-29T16:52:25;12.73;;;9.90;;
38435;SDS011;24220;48.168;14.024;2023-01-29T16:55:31;13.88;;;10.88;;
38435;SDS011;24220;48.168;14.024;2023-01-29T16:57:51;13.43;;;10.63;;
38435;SDS011;24220;48.168;14.024;2023-01-29T17:00:24;14.15;;;10.85;;
38435;SDS011;24220;48.168;14.024;2023-01-29T17:02:59;13.95;;;11.27;;
38435;SDS011;24220;48.168;14.024;2023-01-29T17:05:30;14.02;;;11.63;;
38435;SDS011;24220;48.168;14.024;2023-01-29T17:08:01;15.00;;;12.77;;
38435;SDS011;24220;48.168;14.024;2023-01-29T17:10:30;15.63;;;12.48;;
38435;SDS011;24220;48.168;14.024;2023-01-29T17:13:02;15.07;;;11.13;;
38435;SDS011;24220;48.168;14.024;2023-01-29T17:20:48;14.88;;;11.63;;
38435;SDS011;24220;48.168;14.024;2023-01-29T17:23:16;16.05;;;12.20;;
38435;SDS011;24220;48.168;14.024;2023-01-29T17:25:43;21.48;;;12.50;;